Time;durP1;ratioP1;P1;durP2;ratioP2;P2;SDS_P1;SDS_P2;PMS_P1;PMS_P2;Temp;Humidity;BMP_temperature;BMP_pressure;BME280_temperature;BME280_humidity;BME280_pressure;Samples;Min_cycle;Max_cycle;Signal;HPM_P1;HPM_P2
2024/01/26 00:01:19;;;;;;;5.43;1.73;;;;;;;4.47;67.85;62455.94;4977831;29;20279;-83
2024/01/26 00:03:46;;;;;;;5.20;2.33;;;;;;;4.48;68.08;62457.00;4978782;29;20193;-80
2024/01/26 00:06:13;;;;;;;2.40;2.22;;;;;;;4.40;68.37;62451.78;4979689;28;20240;-80
2024/01/26 00:08:40;;;;;;;3.63;2.22;;;;;;;4.36;69.00;62444.66;4987696;28;20267;-82
2024/01/26 00:11:14;;;;;;;5.55;2.22;;;;;;;4.32;69.25;62443.56;4978396;28;20232;-83
2024/01/26 00:13:41;;;;;;;4.03;2.25;;;;;;;4.39;69.02;62450.75;4978039;29;20209;-80
2024/01/26 00:16:08;;;;;;;15.20;3.08;;;;;;;4.40;69.43;62453.81;4980175;29;20221;-82
2024/01/26 00:18:36;;;;;;;6.35;3.15;;;;;;;4.41;70.00;62450.31;4977283;29;20210;-83
2024/01/26 00:21:03;;;;;;;4.45;1.98;;;;;;;4.35;69.78;62444.13;4977530;28;20240;-82
2024/01/26 00:23:30;;;;;;;7.35;2.97;;;;;;;4.20;69.89;62433.72;4978754;29;20209;-83
2024/01/26 00:25:58;;;;;;;3.60;2.17;;;;;;;4.35;69.70;62444.13;4976816;28;20248;-80
2024/01/26 00:28:27;;;;;;;3.60;2.95;;;;;;;4.22;69.51;62435.78;4977471;28;20208;-82
2024/01/26 00:30:54;;;;;;;2.67;2.17;;;;;;;4.40;69.13;62456.81;4998901;28;20230;-84
2024/01/26 00:33:21;;;;;;;9.55;2.22;;;;;;;4.37;68.95;62448.19;4991249;28;20268;-82
2024/01/26 00:35:49;;;;;;;5.50;2.47;;;;;;;4.27;68.81;62435.38;4990553;28;20252;-83
2024/01/26 00:38:16;;;;;;;3.17;2.20;;;;;;;4.27;68.65;62438.41;4978554;28;20201;-84
2024/01/26 00:40:43;;;;;;;4.45;2.08;;;;;;;4.26;68.19;62437.38;4977338;28;20297;-83
2024/01/26 00:43:10;;;;;;;5.00;2.28;;;;;;;4.23;68.26;62431.25;4974887;28;20205;-83
2024/01/26 00:45:39;;;;;;;7.82;2.00;;;;;;;4.29;67.64;62440.47;4990717;28;20279;-83
2024/01/26 00:48:06;;;;;;;4.10;2.15;;;;;;;4.31;67.29;62442.53;4978923;28;20205;-83
2024/01/26 00:50:33;;;;;;;3.10;2.15;;;;;;;4.23;66.65;62431.78;4978196;28;20229;-83
2024/01/26 00:53:01;;;;;;;7.80;2.33;;;;;;;4.23;67.16;62431.78;4980042;29;20237;-81
2024/01/26 00:55:29;;;;;;;4.72;1.73;;;;;;;4.31;66.49;62439.50;4977134;28;20237;-83
2024/01/26 00:57:57;;;;;;;4.40;1.65;;;;;;;4.21;65.83;62429.72;4977387;29;20381;-82
2024/01/26 01:00:24;;;;;;;3.50;1.88;;;;;;;4.24;65.85;62430.28;4979100;28;20263;-83
2024/01/26 01:02:53;;;;;;;3.05;1.50;;;;;;;4.23;65.81;62436.81;4968941;28;20209;-82
2024/01/26 01:05:20;;;;;;;4.97;2.15;;;;;;;4.10;65.70;62425.97;4979115;28;20258;-82
2024/01/26 01:07:48;;;;;;;5.63;1.88;;;;;;;4.11;66.28;62424.47;4977251;29;20205;-82
2024/01/26 01:10:15;;;;;;;3.08;1.45;;;;;;;4.11;66.87;62419.44;4990225;28;20223;-81
2024/01/26 01:12:43;;;;;;;6.15;1.58;;;;;;;4.04;66.18;62414.25;4969131;29;20203;-85
2024/01/26 01:15:11;;;;;;;6.53;1.60;;;;;;;4.17;66.51;62427.63;4976168;29;20225;-80
2024/01/26 01:17:39;;;;;;;6.32;1.98;;;;;;;4.04;66.87;62419.78;4976122;29;20193;-82
2024/01/26 01:20:10;;;;;;;3.08;1.65;;;;;;;4.03;67.30;62413.72;4976219;28;20220;-82
2024/01/26 01:22:37;;;;;;;3.65;2.05;;;;;;;4.00;67.31;62412.66;4982524;28;20200;-81
2024/01/26 01:25:05;;;;;;;5.03;1.77;;;;;;;3.94;68.18;62403.94;4976766;29;20238;-81
2024/01/26 01:27:32;;;;;;;4.28;2.08;;;;;;;3.92;68.32;62404.41;4976834;29;20205;-83
2024/01/26 01:29:59;;;;;;;7.32;2.30;;;;;;;3.94;68.61;62403.94;4975991;28;20240;-80
2024/01/26 01:32:26;;;;;;;4.35;1.58;;;;;;;3.79;69.08;62388.53;4982508;28;20215;-80
2024/01/26 01:34:53;;;;;;;4.03;2.05;;;;;;;3.78;69.44;62388.00;4975132;28;20220;-82
2024/01/26 01:37:22;;;;;;;3.95;1.50;;;;;;;3.67;70.34;62376.19;4985551;28;20199;-84
2024/01/26 01:39:49;;;;;;;5.32;1.90;;;;;;;3.68;70.60;62377.19;4996403;28;20242;-83
2024/01/26 01:42:16;;;;;;;3.90;1.67;;;;;;;3.70;71.18;62379.25;4975847;28;20228;-80
2024/01/26 01:44:43;;;;;;;6.00;1.75;;;;;;;3.53;71.87;62359.78;4984626;28;20255;-83
2024/01/26 01:47:11;;;;;;;2.17;1.92;;;;;;;3.60;72.06;62372.00;4995385;28;20216;-83
2024/01/26 01:49:39;;;;;;;5.05;1.50;;;;;;;3.60;72.45;62368.97;4991164;28;20225;-83
2024/01/26 01:52:06;;;;;;;5.25;2.00;;;;;;;3.60;72.81;62369.50;4987853;28;20197;-83
2024/01/26 01:54:35;;;;;;;4.53;2.05;;;;;;;3.59;72.82;62370.47;4977234;28;20221;-81
2024/01/26 01:57:03;;;;;;;5.07;2.17;;;;;;;3.61;73.05;62370.53;4988428;28;20212;-84
2024/01/26 01:59:31;;;;;;;3.35;1.65;;;;;;;3.62;72.24;62371.03;4974185;28;20299;-83
2024/01/26 02:01:58;;;;;;;6.57;2.25;;;;;;;3.53;71.46;62362.81;4974573;29;20201;-80
2024/01/26 02:04:25;;;;;;;5.35;2.00;;;;;;;3.62;71.18;62374.06;4987678;28;20260;-81
2024/01/26 02:06:56;;;;;;;3.35;2.13;;;;;;;3.67;71.93;62373.66;4976114;28;20236;-82
2024/01/26 02:09:23;;;;;;;6.68;1.98;;;;;;;3.64;71.87;62370.59;4976985;28;20220;-83
2024/01/26 02:11:51;;;;;;;4.60;2.38;;;;;;;3.63;71.74;62372.06;4986606;28;20220;-82
2024/01/26 02:14:18;;;;;;;1.83;1.73;;;;;;;3.61;70.86;62368.00;4975837;28;20228;-80
2024/01/26 02:16:53;;;;;;;4.10;2.28;;;;;;;3.64;69.91;62371.09;4974407;29;20220;-82
2024/01/26 02:19:20;;;;;;;4.15;1.83;;;;;;;3.66;68.95;62372.63;4974661;28;20238;-81
2024/01/26 02:21:47;;;;;;;2.47;1.88;;;;;;;3.70;67.77;62381.78;4975060;29;20236;-82
2024/01/26 02:24:16;;;;;;;2.33;1.70;;;;;;;3.76;67.04;62387.97;4977742;28;20342;-82
2024/01/26 02:26:44;;;;;;;2.38;2.15;;;;;;;3.84;66.00;62396.19;4994987;28;20228;-82
2024/01/26 02:29:11;;;;;;;1.48;1.38;;;;;;;3.71;66.40;62380.31;4977435;28;20216;-83
2024/01/26 02:31:38;;;;;;;5.57;1.77;;;;;;;3.81;66.02;62391.09;4974869;29;20208;-84
2024/01/26 02:34:06;;;;;;;3.17;1.50;;;;;;;3.80;66.05;62390.06;4987366;28;20208;-82
2024/01/26 02:36:35;;;;;;;4.32;1.85;;;;;;;3.83;66.24;62392.63;4984707;28;20241;-81
2024/01/26 02:39:01;;;;;;;5.03;1.27;;;;;;;3.83;66.22;62387.59;4976301;28;20216;-83
2024/01/26 02:41:29;;;;;;;3.05;1.65;;;;;;;3.73;65.47;62384.88;4974604;29;20207;-84
2024/01/26 02:43:57;;;;;;;5.90;2.90;;;;;;;3.85;65.73;62394.69;4982948;28;20204;-83
2024/01/26 02:46:23;;;;;;;2.53;1.40;;;;;;;3.86;65.34;62393.19;4980389;28;20248;-81
2024/01/26 02:48:51;;;;;;;7.70;1.77;;;;;;;3.87;64.60;62399.78;4973151;29;20224;-81
2024/01/26 02:51:18;;;;;;;2.45;1.58;;;;;;;3.90;64.54;62399.84;4973466;28;20575;-84
2024/01/26 02:53:45;;;;;;;4.38;1.85;;;;;;;3.95;64.35;62404.97;4973834;29;20604;-81
2024/01/26 02:56:12;;;;;;;5.30;1.73;;;;;;;3.97;64.52;62405.03;4988129;28;20228;-82
2024/01/26 02:58:41;;;;;;;2.85;1.63;;;;;;;3.98;64.55;62413.09;4981256;28;20212;-83
2024/01/26 03:01:08;;;;;;;2.83;1.40;;;;;;;3.97;64.28;62407.53;4975215;28;20248;-83
2024/01/26 03:03:35;;;;;;;4.43;1.77;;;;;;;4.01;64.23;62411.66;4988414;28;20239;-84
2024/01/26 03:06:02;;;;;;;8.77;1.73;;;;;;;4.00;64.61;62410.66;4966167;28;20247;-83
2024/01/26 03:08:31;;;;;;;5.00;2.03;;;;;;;3.93;64.97;62403.44;4973630;28;20209;-83
2024/01/26 03:10:58;;;;;;;2.00;1.38;;;;;;;3.96;64.99;62406.00;4981541;28;20257;-80
2024/01/26 03:13:25;;;;;;;3.20;1.52;;;;;;;3.98;65.61;62408.06;4987784;28;20211;-82
2024/01/26 03:15:53;;;;;;;6.72;1.67;;;;;;;4.00;66.19;62410.66;4973608;28;20239;-80
2024/01/26 03:18:21;;;;;;;2.45;1.85;;;;;;;3.98;65.96;62408.59;4975242;29;20225;-82
2024/01/26 03:20:48;;;;;;;2.05;1.30;;;;;;;3.91;66.55;62400.88;4976354;28;20224;-83
2024/01/26 03:23:16;;;;;;;4.50;2.40;;;;;;;3.87;67.46;62397.25;4972850;28;20219;-81
2024/01/26 03:25:43;;;;;;;2.55;2.03;;;;;;;3.80;67.61;62385.03;4973061;28;20243;-83
2024/01/26 03:28:11;;;;;;;3.55;1.48;;;;;;;3.86;66.86;62396.25;4975356;28;20263;-82
2024/01/26 03:30:40;;;;;;;8.23;1.90;;;;;;;3.88;67.24;62400.28;4983609;28;20224;-81
2024/01/26 03:33:09;;;;;;;7.60;1.67;;;;;;;3.86;67.42;62398.75;4983319;28;20252;-82
2024/01/26 03:35:36;;;;;;;1.92;1.70;;;;;;;3.87;67.80;62397.25;4975874;28;20225;-83
2024/01/26 03:38:03;;;;;;;7.50;1.35;;;;;;;3.79;68.27;62389.03;4986369;28;20219;-83
2024/01/26 03:40:31;;;;;;;3.70;1.80;;;;;;;3.87;68.15;62397.25;4972412;28;20228;-83
2024/01/26 03:42:57;;;;;;;8.25;1.65;;;;;;;3.89;68.13;62396.28;4969168;28;20204;-83
2024/01/26 03:45:24;;;;;;;10.23;2.00;;;;;;;3.91;68.44;62400.88;4980081;28;20224;-84
2024/01/26 03:47:52;;;;;;;1.38;1.27;;;;;;;3.91;67.67;62403.91;4980188;28;20217;-83
2024/01/26 03:50:20;;;;;;;2.90;1.42;;;;;;;3.89;68.32;62399.31;4957585;28;20221;-83
2024/01/26 03:52:47;;;;;;;3.85;2.20;;;;;;;3.91;68.07;62400.88;4993505;28;20540;-80
2024/01/26 03:55:15;;;;;;;2.63;1.52;;;;;;;3.85;68.31;62389.66;4981636;28;20277;-81
2024/01/26 03:57:42;;;;;;;7.75;2.10;;;;;;;3.87;68.55;62394.75;4975479;28;20200;-81
2024/01/26 04:00:10;;;;;;;5.25;1.88;;;;;;;3.89;68.56;62399.31;4972168;28;20265;-83
2024/01/26 04:02:38;;;;;;;1.52;1.42;;;;;;;3.88;67.50;62395.25;4982894;28;20200;-83
2024/01/26 04:05:05;;;;;;;5.72;1.65;;;;;;;3.89;67.33;62396.81;4977077;28;20227;-82
2024/01/26 04:07:34;;;;;;;6.38;2.08;;;;;;;3.90;66.51;62402.34;4974531;29;20232;-76
2024/01/26 04:10:01;;;;;;;3.88;1.88;;;;;;;3.92;66.27;62402.41;4988102;28;20247;-82
2024/01/26 04:12:28;;;;;;;2.90;1.75;;;;;;;3.93;65.34;62405.97;4973643;29;20256;-80
2024/01/26 04:14:55;;;;;;;5.88;1.50;;;;;;;3.91;65.80;62406.41;4974148;28;20256;-82
2024/01/26 04:17:23;;;;;;;6.63;1.92;;;;;;;3.82;65.59;62389.09;4967788;29;20197;-80
2024/01/26 04:19:50;;;;;;;1.77;1.40;;;;;;;4.01;65.52;62413.66;4970912;28;20268;-81
2024/01/26 04:22:16;;;;;;;2.80;1.67;;;;;;;4.02;64.37;62412.19;4974628;28;20220;-80
2024/01/26 04:24:46;;;;;;;3.17;1.40;;;;;;;3.95;64.50;62405.47;4977467;28;20249;-82
2024/01/26 04:27:13;;;;;;;2.83;1.80;;;;;;;4.09;63.49;62419.88;4981810;28;20226;-82
2024/01/26 04:29:40;;;;;;;1.40;1.30;;;;;;;4.14;62.83;62424.53;4977124;28;20378;-80
2024/01/26 04:32:07;;;;;;;1.75;1.60;;;;;;;4.21;62.65;62429.72;4975598;28;20248;-81
2024/01/26 04:34:37;;;;;;;3.63;1.77;;;;;;;4.22;62.47;62430.22;4973597;28;20216;-82
2024/01/26 04:37:05;;;;;;;7.72;1.95;;;;;;;4.21;62.06;62424.69;4973728;28;20542;-82
2024/01/26 04:39:32;;;;;;;2.80;1.42;;;;;;;4.22;62.02;62432.75;4976355;28;20260;-82
2024/01/26 04:42:01;;;;;;;3.45;1.80;;;;;;;4.10;62.12;62420.41;4978105;28;20244;-82
2024/01/26 04:44:28;;;;;;;7.55;1.58;;;;;;;4.17;61.94;62425.63;4971961;28;20230;-83
2024/01/26 04:46:57;;;;;;;4.90;1.50;;;;;;;4.16;62.46;62421.56;4996191;28;20290;-81
2024/01/26 04:49:27;;;;;;;6.80;1.92;;;;;;;4.13;62.51;62423.50;4982275;28;20256;-83
2024/01/26 04:51:54;;;;;;;3.90;1.67;;;;;;;4.12;61.63;62425.50;4989091;28;20227;-81
2024/01/26 04:54:21;;;;;;;2.28;1.50;;;;;;;4.00;62.59;62407.59;4977256;28;20254;-81
2024/01/26 04:56:48;;;;;;;2.90;1.15;;;;;;;3.99;62.22;62409.59;4977187;29;20200;-81
2024/01/26 04:59:17;;;;;;;1.73;1.63;;;;;;;4.00;61.95;62418.19;4992410;28;20227;-82
2024/01/26 05:01:44;;;;;;;1.75;1.38;;;;;;;3.95;62.72;62408.00;4978882;28;20197;-81
2024/01/26 05:04:11;;;;;;;1.35;1.10;;;;;;;4.01;63.73;62411.66;4961920;28;20201;-81
2024/01/26 05:06:38;;;;;;;3.03;2.28;;;;;;;3.99;63.84;62407.09;4995366;28;20234;-82
2024/01/26 05:09:06;;;;;;;5.05;2.53;;;;;;;3.80;64.29;62395.09;4983474;28;20210;-83
2024/01/26 05:11:33;;;;;;;4.60;1.70;;;;;;;3.97;64.71;62407.53;4993014;28;20229;-82
2024/01/26 05:14:00;;;;;;;2.63;1.77;;;;;;;3.94;65.32;62401.41;4985869;28;20379;-80
2024/01/26 05:16:29;;;;;;;3.20;2.17;;;;;;;3.91;65.52;62398.34;4980628;28;20264;-80
2024/01/26 05:18:56;;;;;;;3.65;1.52;;;;;;;3.92;65.29;62399.88;4974872;28;20235;-82
2024/01/26 05:21:23;;;;;;;1.65;1.20;;;;;;;3.85;64.53;62392.69;4974269;28;20216;-80
2024/01/26 05:23:50;;;;;;;6.63;2.20;;;;;;;3.95;64.47;62402.47;4974637;28;20196;-82
2024/01/26 05:26:18;;;;;;;2.13;1.60;;;;;;;3.90;64.20;62399.84;4974751;28;20239;-83
2024/01/26 05:28:45;;;;;;;1.48;1.08;;;;;;;3.85;64.41;62394.69;4978837;28;20253;-82
2024/01/26 05:31:13;;;;;;;4.60;1.58;;;;;;;3.82;64.42;62394.63;4978107;28;20311;-82
2024/01/26 05:33:47;;;;;;;7.90;1.45;;;;;;;3.78;64.37;62385.47;4969717;28;20379;-85
2024/01/26 05:36:14;;;;;;;2.03;1.45;;;;;;;3.52;64.37;62364.28;4983356;28;20215;-80
2024/01/26 05:38:41;;;;;;;4.85;1.88;;;;;;;3.47;64.62;62354.13;4978019;28;20204;-84
2024/01/26 05:41:08;;;;;;;5.78;1.40;;;;;;;3.66;64.53;62370.13;4977669;28;20252;-84
2024/01/26 05:43:35;;;;;;;4.45;1.38;;;;;;;3.63;64.98;62372.56;4975350;28;20184;-81
2024/01/26 05:46:02;;;;;;;4.68;1.98;;;;;;;3.57;65.09;62360.88;4975077;28;20219;-84
2024/01/26 05:48:29;;;;;;;2.53;1.70;;;;;;;3.52;65.35;62361.78;4979908;28;20401;-84
2024/01/26 05:50:58;;;;;;;3.22;1.80;;;;;;;3.51;65.57;62365.78;4973647;28;20244;-81
2024/01/26 05:53:25;;;;;;;2.08;1.50;;;;;;;3.48;66.09;62357.16;4974937;29;20548;-80
2024/01/26 05:55:52;;;;;;;5.10;1.80;;;;;;;3.42;65.92;62354.00;4978157;28;20427;-81
2024/01/26 05:58:19;;;;;;;3.70;1.83;;;;;;;3.41;66.92;62350.47;4972363;29;20329;-82
2024/01/26 06:00:46;;;;;;;4.85;2.22;;;;;;;3.34;66.99;62345.78;4979027;28;20223;-81
2024/01/26 06:03:13;;;;;;;5.72;1.92;;;;;;;3.39;67.04;62347.91;4964124;29;20197;-82
2024/01/26 06:05:40;;;;;;;5.53;2.05;;;;;;;3.35;67.20;62344.31;4985660;28;20229;-81
2024/01/26 06:08:08;;;;;;;4.72;1.50;;;;;;;3.33;68.08;62341.75;4973456;29;20244;-80
2024/01/26 06:10:36;;;;;;;3.03;1.55;;;;;;;3.30;67.89;62341.69;4974475;28;20220;-81
2024/01/26 06:13:05;;;;;;;5.13;1.50;;;;;;;3.35;67.79;62341.78;4989316;28;20204;-80
2024/01/26 06:15:32;;;;;;;2.25;2.05;;;;;;;3.32;67.68;62341.22;4985298;28;20271;-79
2024/01/26 06:17:59;;;;;;;1.80;1.67;;;;;;;3.33;67.80;62339.72;4973057;29;20351;-81
2024/01/26 06:20:30;;;;;;;2.00;1.45;;;;;;;3.27;68.03;62341.13;4974938;28;20240;-81
2024/01/26 06:22:57;;;;;;;3.65;1.83;;;;;;;3.28;68.28;62331.56;4984309;28;20224;-80
2024/01/26 06:25:26;;;;;;;1.90;1.65;;;;;;;3.34;67.65;62345.78;4971839;28;20416;-80
2024/01/26 06:27:53;;;;;;;3.00;1.70;;;;;;;3.36;67.78;62345.34;4978020;28;20232;-80
2024/01/26 06:30:22;;;;;;;2.65;1.48;;;;;;;3.40;67.69;62351.97;4993011;28;20243;-82
2024/01/26 06:32:49;;;;;;;5.32;2.53;;;;;;;3.33;67.70;62337.22;4977853;28;20197;-83
2024/01/26 06:35:17;;;;;;;4.60;1.77;;;;;;;3.43;67.19;62352.53;4973500;28;20227;-81
2024/01/26 06:37:44;;;;;;;6.45;2.55;;;;;;;3.38;66.38;62349.91;4974572;29;20217;-82
2024/01/26 06:40:13;;;;;;;3.72;1.40;;;;;;;3.49;66.72;62358.19;4975581;28;20243;-81
2024/01/26 06:42:42;;;;;;;5.30;1.80;;;;;;;3.49;66.84;62355.66;4986842;28;20268;-84
2024/01/26 06:45:09;;;;;;;3.42;1.90;;;;;;;3.53;65.57;62362.28;4983116;28;20258;-83
2024/01/26 06:47:36;;;;;;;7.70;1.60;;;;;;;3.37;65.70;62343.84;4974411;28;20260;-83
2024/01/26 06:50:04;;;;;;;5.65;2.22;;;;;;;3.57;65.45;62363.91;4955797;28;20221;-81
2024/01/26 06:52:31;;;;;;;5.18;2.00;;;;;;;3.47;65.53;62356.63;4971124;29;20463;-83
2024/01/26 06:54:58;;;;;;;2.58;1.20;;;;;;;3.55;65.72;62361.84;4973120;28;20340;-80
2024/01/26 06:57:25;;;;;;;5.20;1.85;;;;;;;3.63;64.96;62367.53;4971351;28;20216;-81
2024/01/26 06:59:54;;;;;;;2.20;1.45;;;;;;;3.60;64.38;62369.50;4978130;28;20213;-81
2024/01/26 07:02:21;;;;;;;4.68;1.92;;;;;;;3.74;64.15;62383.38;4967862;29;20205;-81
2024/01/26 07:04:48;;;;;;;3.83;1.92;;;;;;;3.80;63.65;62389.53;4971751;28;20221;-82
2024/01/26 07:07:15;;;;;;;7.85;2.85;;;;;;;4.07;62.70;62420.34;4968489;29;20572;-81
2024/01/26 07:09:42;;;;;;;2.08;1.50;;;;;;;4.27;60.95;62440.94;4975410;28;20283;-81
2024/01/26 07:12:10;;;;;;;4.63;1.60;;;;;;;4.49;60.54;62458.00;4973357;28;20233;-80
2024/01/26 07:14:37;;;;;;;4.70;1.98;;;;;;;4.70;59.63;62479.63;4963033;29;20236;-81
2024/01/26 07:17:05;;;;;;;5.05;1.63;;;;;;;4.92;58.47;62499.75;4962469;29;20212;-81
2024/01/26 07:19:32;;;;;;;7.03;1.85;;;;;;;4.93;58.13;62507.84;4974497;28;20236;-81
2024/01/26 07:21:59;;;;;;;6.78;2.25;;;;;;;4.61;59.00;62470.38;4966558;29;20253;-82
2024/01/26 07:24:27;;;;;;;1.65;1.52;;;;;;;4.19;60.12;62432.72;4971031;28;20253;-80
2024/01/26 07:26:54;;;;;;;5.07;1.88;;;;;;;4.18;60.57;62426.13;4970112;28;20227;-82
2024/01/26 07:29:21;;;;;;;1.42;1.35;;;;;;;4.05;60.33;62415.25;4977217;28;20224;-83
2024/01/26 07:31:49;;;;;;;5.68;1.83;;;;;;;4.18;60.97;62426.13;4971736;29;20201;-82
2024/01/26 07:34:18;;;;;;;2.03;1.83;;;;;;;4.11;61.18;62421.94;4966752;29;20201;-80
2024/01/26 07:36:45;;;;;;;2.95;1.70;;;;;;;4.08;61.82;62418.88;4972877;28;20205;-82
2024/01/26 07:39:12;;;;;;;6.70;1.90;;;;;;;4.14;61.46;62422.50;4959255;29;20231;-82
2024/01/26 07:41:39;;;;;;;4.22;1.50;;;;;;;4.04;61.49;62414.25;4965886;29;20196;-80
2024/01/26 07:44:06;;;;;;;1.48;0.90;;;;;;;3.97;61.29;62407.03;4976508;28;20204;-82
2024/01/26 07:46:33;;;;;;;4.20;1.65;;;;;;;3.94;61.50;62401.41;4969150;29;20193;-80
2024/01/26 07:49:01;;;;;;;2.90;2.65;;;;;;;4.01;61.37;62409.16;4967039;29;20212;-81
2024/01/26 07:51:29;;;;;;;4.15;1.70;;;;;;;4.12;61.66;62417.94;4970566;29;20223;-82
2024/01/26 07:53:57;;;;;;;2.78;1.25;;;;;;;4.15;60.99;62423.56;4969512;28;20203;-82
2024/01/26 07:56:24;;;;;;;7.15;2.75;;;;;;;4.13;60.97;62428.53;4968649;29;20221;-82
2024/01/26 07:58:51;;;;;;;2.30;1.15;;;;;;;4.07;60.66;62414.81;4960687;28;20330;-80
2024/01/26 08:01:17;;;;;;;4.15;2.28;;;;;;;4.20;61.20;62428.16;4963474;29;20230;-82
2024/01/26 08:03:45;;;;;;;1.10;1.10;;;;;;;4.18;60.20;62431.66;4963299;29;20216;-82
2024/01/26 08:06:11;;;;;;;1.85;1.10;;;;;;;4.18;61.13;62428.63;4966048;29;20224;-82
2024/01/26 08:08:40;;;;;;;3.63;1.50;;;;;;;4.41;60.90;62447.25;4966355;28;20307;-81
2024/01/26 08:11:07;;;;;;;3.83;1.40;;;;;;;4.42;60.43;62453.84;4973660;28;20217;-81
2024/01/26 08:13:34;;;;;;;3.72;1.63;;;;;;;4.33;60.07;62439.03;4974831;29;20197;-82
2024/01/26 08:16:01;;;;;;;2.05;1.25;;;;;;;4.42;60.42;62453.84;4973798;28;20259;-82
2024/01/26 08:18:27;;;;;;;2.47;1.30;;;;;;;4.40;61.01;62451.28;4977490;28;20225;-82
2024/01/26 08:20:54;;;;;;;3.63;1.38;;;;;;;4.46;60.75;62459.97;4975324;28;20217;-77
2024/01/26 08:23:21;;;;;;;6.80;2.15;;;;;;;4.48;60.93;62457.50;4958332;29;20198;-82
2024/01/26 08:25:50;;;;;;;3.30;1.05;;;;;;;4.44;60.83;62460.94;4973930;29;20251;-82
2024/01/26 08:28:17;;;;;;;4.28;1.55;;;;;;;4.32;60.66;62443.03;4976573;29;20220;-79
2024/01/26 08:30:44;;;;;;;3.47;1.58;;;;;;;4.34;60.21;62442.59;4976372;28;20232;-82
2024/01/26 08:33:11;;;;;;;4.25;1.60;;;;;;;4.42;61.04;62451.31;4975650;29;20216;-83
2024/01/26 08:35:38;;;;;;;2.47;1.45;;;;;;;4.57;61.14;62466.75;4974392;28;20536;-80
2024/01/26 08:38:05;;;;;;;6.45;1.80;;;;;;;4.63;61.04;62475.47;4985780;28;20267;-82
2024/01/26 08:40:31;;;;;;;5.68;1.67;;;;;;;4.80;61.42;62489.41;4976599;28;20224;-80
2024/01/26 08:43:00;;;;;;;1.65;1.10;;;;;;;4.68;60.14;62480.63;4974628;29;20213;-81
2024/01/26 08:45:27;;;;;;;1.15;1.10;;;;;;;4.68;60.35;62477.56;4977202;28;20228;-83
2024/01/26 08:47:54;;;;;;;4.68;1.10;;;;;;;4.79;60.43;62490.91;4976126;29;20228;-82
2024/01/26 08:50:21;;;;;;;1.23;1.05;;;;;;;4.87;61.29;62496.63;4974147;29;20221;-81
2024/01/26 08:52:48;;;;;;;4.10;1.48;;;;;;;4.89;60.25;62499.19;4981928;28;20208;-78
2024/01/26 08:55:16;;;;;;;3.45;1.60;;;;;;;4.96;60.21;62506.41;4975087;28;20447;-82
2024/01/26 08:57:43;;;;;;;1.73;1.30;;;;;;;4.88;59.90;62497.66;4974734;29;20216;-81
2024/01/26 09:00:15;;;;;;;1.58;0.88;;;;;;;4.68;59.90;62480.63;4978667;28;20248;-83
2024/01/26 09:02:42;;;;;;;4.50;1.10;;;;;;;4.66;60.18;62483.06;4974826;29;20212;-83
2024/01/26 09:05:11;;;;;;;2.50;1.48;;;;;;;4.66;60.69;62478.03;4975803;29;20231;-83
2024/01/26 09:07:38;;;;;;;1.10;1.10;;;;;;;4.51;60.74;62467.63;4974841;29;20410;-82
2024/01/26 09:10:07;;;;;;;5.30;1.88;;;;;;;4.60;61.34;62471.88;4977177;28;20286;-83
2024/01/26 09:12:34;;;;;;;3.42;1.90;;;;;;;4.87;61.07;62494.59;4986156;28;20204;-84
2024/01/26 09:15:01;;;;;;;5.50;1.83;;;;;;;4.74;60.17;62484.25;4980511;28;20459;-82
2024/01/26 09:17:29;;;;;;;6.07;1.40;;;;;;;4.92;60.04;62504.28;4985942;28;20208;-85
2024/01/26 09:19:57;;;;;;;3.70;1.75;;;;;;;4.86;60.48;62496.09;4975535;28;20237;-82
2024/01/26 09:22:24;;;;;;;2.80;1.52;;;;;;;5.04;59.73;62516.66;4973567;28;20244;-81
2024/01/26 09:24:51;;;;;;;3.05;1.65;;;;;;;4.87;59.31;62496.63;4976237;29;20251;-82
2024/01/26 09:27:19;;;;;;;4.57;1.50;;;;;;;4.97;59.72;62506.91;4974281;29;20209;-81
2024/01/26 09:29:46;;;;;;;4.20;1.58;;;;;;;5.04;59.87;62514.63;4974786;28;20260;-80
2024/01/26 09:32:13;;;;;;;2.00;1.20;;;;;;;5.09;60.19;62522.31;4985658;28;20218;-82
2024/01/26 09:34:43;;;;;;;1.45;1.35;;;;;;;5.13;59.83;62526.44;4981730;28;20231;-83
2024/01/26 09:37:10;;;;;;;2.25;1.52;;;;;;;5.10;59.25;62517.78;4995541;28;20207;-82
2024/01/26 09:39:37;;;;;;;6.43;1.08;;;;;;;5.02;58.95;62517.13;4982955;28;20228;-83
2024/01/26 09:42:05;;;;;;;4.93;1.17;;;;;;;4.92;59.46;62504.81;4984264;28;20205;-81
2024/01/26 09:44:32;;;;;;;5.55;1.75;;;;;;;4.95;59.83;62505.38;4978303;28;20271;-83
2024/01/26 09:46:59;;;;;;;2.90;1.65;;;;;;;5.00;60.21;62510.53;4983756;28;20208;-81
2024/01/26 09:49:26;;;;;;;1.00;1.00;;;;;;;5.10;59.38;62522.81;4973251;28;20232;-80
2024/01/26 09:51:55;;;;;;;1.80;1.40;;;;;;;4.83;60.31;62495.56;4974702;29;20205;-83
2024/01/26 09:54:22;;;;;;;2.38;1.48;;;;;;;5.01;59.79;62514.06;4986845;28;20212;-82
2024/01/26 09:56:50;;;;;;;1.30;1.20;;;;;;;5.30;58.97;62546.47;4980095;28;20208;-82
2024/01/26 09:59:17;;;;;;;3.95;2.00;;;;;;;5.19;58.33;62535.13;4972772;28;20217;-83
2024/01/26 10:01:44;;;;;;;1.52;1.27;;;;;;;5.10;58.42;62523.34;4974426;28;20224;-82
2024/01/26 10:04:10;;;;;;;3.35;1.40;;;;;;;5.16;59.22;62529.50;4993367;28;20219;-81
2024/01/26 10:06:38;;;;;;;1.83;1.52;;;;;;;5.28;58.55;62543.91;4977340;28;20273;-81
2024/01/26 10:09:08;;;;;;;3.72;1.45;;;;;;;5.25;58.48;62543.31;4974404;28;20224;-81
2024/01/26 10:11:35;;;;;;;2.30;1.60;;;;;;;5.32;56.96;62542.94;4973718;29;20197;-80
2024/01/26 10:14:02;;;;;;;3.38;1.42;;;;;;;5.17;57.41;62533.06;4979709;28;20223;-79
2024/01/26 10:16:29;;;;;;;3.45;1.90;;;;;;;5.31;57.77;62547.50;4981152;28;20216;-80
2024/01/26 10:18:56;;;;;;;2.92;1.42;;;;;;;5.23;57.24;62538.75;4982659;28;20189;-82
2024/01/26 10:21:24;;;;;;;1.85;1.75;;;;;;;5.46;57.98;62564.94;4985519;28;20232;-81
2024/01/26 10:23:51;;;;;;;3.58;1.27;;;;;;;5.51;56.93;62568.09;4973266;28;20203;-81
2024/01/26 10:26:20;;;;;;;5.47;1.80;;;;;;;5.67;56.78;62576.50;4977466;28;20238;-79
2024/01/26 10:28:48;;;;;;;1.52;1.42;;;;;;;5.58;56.52;62569.75;4971210;29;20247;-78
2024/01/26 10:31:15;;;;;;;2.35;1.80;;;;;;;5.80;56.55;62592.91;4958602;28;20299;-80
2024/01/26 10:33:43;;;;;;;1.77;1.67;;;;;;;5.81;56.51;62596.50;4966743;28;20221;-80
2024/01/26 10:36:10;;;;;;;2.00;1.80;;;;;;;5.85;55.29;62602.63;4968269;28;20216;-80
2024/01/26 10:38:37;;;;;;;3.15;1.48;;;;;;;5.85;55.78;62603.16;4971307;28;20385;-82
2024/01/26 10:41:05;;;;;;;7.18;1.95;;;;;;;5.77;55.93;62594.38;4981426;28;20228;-80
2024/01/26 10:43:33;;;;;;;4.10;2.17;;;;;;;5.79;55.68;62594.44;4974775;28;20215;-80
2024/01/26 10:46:02;;;;;;;2.10;1.40;;;;;;;5.88;56.42;62603.72;4976996;28;20256;-81
2024/01/26 10:48:29;;;;;;;1.50;1.20;;;;;;;5.96;54.94;62611.44;4965083;29;20471;-81
2024/01/26 10:50:56;;;;;;;1.50;1.40;;;;;;;5.71;55.09;62583.66;4970659;28;20537;-81
2024/01/26 10:53:23;;;;;;;3.78;1.30;;;;;;;5.78;55.75;62595.91;4969459;28;20370;-80
2024/01/26 10:55:49;;;;;;;2.00;1.27;;;;;;;5.73;56.00;62588.22;4966976;28;20258;-79
2024/01/26 10:58:16;;;;;;;3.13;2.13;;;;;;;5.88;56.25;62600.16;4959545;29;20209;-80
2024/01/26 11:00:45;;;;;;;7.05;1.90;;;;;;;6.08;55.18;62620.75;4972317;28;20227;-79
2024/01/26 11:03:12;;;;;;;6.05;1.90;;;;;;;6.01;54.66;62614.06;4970472;28;20243;-81
2024/01/26 11:05:39;;;;;;;7.43;2.25;;;;;;;5.84;54.93;62602.13;4964173;29;20239;-81
2024/01/26 11:08:07;;;;;;;1.90;1.73;;;;;;;5.75;55.86;62590.31;4960751;29;20224;-82
2024/01/26 11:10:35;;;;;;;1.38;1.27;;;;;;;5.68;55.85;62585.09;4965986;29;20597;-80
2024/01/26 11:13:02;;;;;;;3.80;1.60;;;;;;;5.56;55.54;62567.69;4967389;28;20225;-81
2024/01/26 11:15:30;;;;;;;5.93;1.90;;;;;;;5.42;56.21;62556.28;4966312;28;20220;-80
2024/01/26 11:17:59;;;;;;;6.57;1.70;;;;;;;5.51;56.78;62567.56;4971133;29;20201;-81
2024/01/26 11:20:26;;;;;;;2.80;1.67;;;;;;;5.36;56.26;62550.13;4967349;28;20276;-80
2024/01/26 11:23:00;;;;;;;1.92;1.30;;;;;;;5.51;56.34;62565.56;4967881;29;20223;-79
2024/01/26 11:25:28;;;;;;;2.28;1.23;;;;;;;5.49;56.22;62560.47;4966153;29;20228;-81
2024/01/26 11:27:58;;;;;;;3.58;2.67;;;;;;;5.60;56.09;62569.28;4959187;29;20270;-81
2024/01/26 11:30:26;;;;;;;2.97;1.65;;;;;;;5.57;56.48;62574.28;4961083;29;20288;-80
2024/01/26 11:32:53;;;;;;;7.55;1.80;;;;;;;5.43;55.02;62554.28;4966569;29;20251;-80
2024/01/26 11:35:23;;;;;;;3.60;1.40;;;;;;;5.43;54.69;62554.81;4962464;29;20221;-80
2024/01/26 11:37:52;;;;;;;3.55;2.13;;;;;;;5.24;55.23;62537.75;4963761;29;20231;-81
2024/01/26 11:40:20;;;;;;;1.85;1.40;;;;;;;5.06;55.17;62516.69;4969372;28;20232;-81
2024/01/26 11:42:47;;;;;;;1.58;1.48;;;;;;;5.19;55.91;62532.09;4973472;28;20217;-80